Impacts METAR Board
IDs:

KCLE - Cleveland/Hopkins In, OH, US

Updated at: 1300 UTC 24 Aug 2019
Potential Impact None Slight Moderate High
Time 24/01Z 24/02Z 24/03Z 24/04Z 24/05Z 24/06Z 24/07Z 24/08Z 24/09Z 24/10Z 24/11Z 24/12Z 24/13Z
Temp67 66 68 68 68 67 66 65 65 63 62 64 68
Dewpt53 53 55 55 57 56 54 54 53 54 53 54 53
Altim30.18 30.20 30.21 30.22 30.22 30.22 30.22 30.22 30.23 30.25 30.27 30.28 30.29
VIS10 10 10 10 10 10 10 10 10 10 10 10 10
CIG-- -- 65 75 60 -- -- -- -- -- 70 70 65
CoverFEWFEWBKNBKNBKNSCTSCTSCTSCTSCTBKNBKNBKN
FltCatVFRVFRVFRVFRVFRVFRVFRVFRVFRVFRVFRVFRVFR
WX--------------------------
WDir10203601010103040110509010090
WSpd5 5 3 11 10 7 6 6 3 4 4 4 6
WGst-- -- -- -- -- -- -- -- -- -- -- -- --
Raw hourly METARs
KCLE 240051Z 01005KT 10SM FEW070 19/12 A3018 RMK AO2 SLP217 T01940117 $
KCLE 240151Z 02005KT 10SM FEW045 FEW070 19/12 A3020 RMK AO2 SLP222 T01890117 $
KCLE 240251Z 36003KT 10SM FEW045 BKN065 20/13 A3021 RMK AO2 SLP225 T02000128 53009 $
KCLE 240351Z 01011KT 10SM SCT043 BKN075 20/13 A3022 RMK AO2 WSHFT 0309 SLP228 T02000128 $
KCLE 240451Z 01010KT 10SM BKN060 20/14 A3022 RMK AO2 SLP230 T02000139 402390167 $
KCLE 240551Z 01007KT 10SM SCT075 19/13 A3022 RMK AO2 SLP230 T01940133 10206 20183 50004 $
KCLE 240651Z 03006KT 10SM SCT070 19/12 A3022 RMK AO2 SLP228 T01890122 $
KCLE 240751Z 04006KT 10SM FEW043 SCT070 18/12 A3022 RMK AO2 SLP230 T01830122 $
KCLE 240851Z 11003KT 10SM SCT075 18/12 A3023 RMK AO2 SLP234 T01830117 53004 $
KCLE 240951Z 05004KT 10SM SCT070 17/12 A3025 RMK AO2 SLP240 T01720122 $
KCLE 241051Z 09004KT 10SM FEW042 BKN070 17/12 A3027 RMK AO2 SLP248 T01670117 $
KCLE 241151Z 10004KT 10SM FEW040 BKN070 18/12 A3028 RMK AO2 SLP252 T01780122 10194 20167 51017 $
KCLE 241251Z 09006KT 10SM FEW040 BKN065 20/12 A3029 RMK AO2 SLP252 T02000117 $



Page loaded:  13:53 UTC  |   06:53 AM Pacific  |   07:53 AM Mountain  |   08:53 AM Central  |   09:53 AM Eastern

 

ADVISORIES

FORECASTS

FORECASTS

OBSERVATIONS

USER TOOLS

ABOUT US